sensor_id;sensor_type;location;lat;lon;timestamp;P1;durP1;ratioP1;P2;durP2;ratioP2
15812;SDS011;8007;51.404;6.304;2022-07-23T00:01:32;7.67;;;5.83;;
15812;SDS011;8007;51.404;6.304;2022-07-23T00:03:35;9.43;;;6.07;;
15812;SDS011;8007;51.404;6.304;2022-07-23T00:05:38;8.27;;;5.97;;
15812;SDS011;8007;51.404;6.304;2022-07-23T00:07:41;8.53;;;5.73;;
15812;SDS011;8007;51.404;6.304;2022-07-23T00:09:43;7.53;;;5.60;;
15812;SDS011;8007;51.404;6.304;2022-07-23T00:11:46;9.67;;;6.27;;
15812;SDS011;8007;51.404;6.304;2022-07-23T00:13:48;7.53;;;5.70;;
15812;SDS011;8007;51.404;6.304;2022-07-23T00:15:50;7.73;;;6.10;;
15812;SDS011;8007;51.404;6.304;2022-07-23T00:17:53;6.03;;;5.40;;
15812;SDS011;8007;51.404;6.304;2022-07-23T00:19:55;8.00;;;5.50;;
15812;SDS011;8007;51.404;6.304;2022-07-23T00:21:59;6.77;;;5.80;;
15812;SDS011;8007;51.404;6.304;2022-07-23T00:24:01;5.67;;;5.10;;
15812;SDS011;8007;51.404;6.304;2022-07-23T00:26:04;8.17;;;5.50;;
15812;SDS011;8007;51.404;6.304;2022-07-23T00:28:07;8.27;;;5.83;;
15812;SDS011;8007;51.404;6.304;2022-07-23T00:30:10;7.30;;;5.67;;
15812;SDS011;8007;51.404;6.304;2022-07-23T00:32:13;7.00;;;5.83;;
15812;SDS011;8007;51.404;6.304;2022-07-23T00:34:16;6.63;;;5.30;;
15812;SDS011;8007;51.404;6.304;2022-07-23T00:36:18;6.20;;;5.57;;
15812;SDS011;8007;51.404;6.304;2022-07-23T00:38:22;8.20;;;6.30;;
15812;SDS011;8007;51.404;6.304;2022-07-23T00:40:24;6.97;;;5.53;;
15812;SDS011;8007;51.404;6.304;2022-07-23T00:42:27;9.30;;;5.80;;
15812;SDS011;8007;51.404;6.304;2022-07-23T00:44:30;9.43;;;5.40;;
15812;SDS011;8007;51.404;6.304;2022-07-23T00:46:33;9.67;;;5.47;;
15812;SDS011;8007;51.404;6.304;2022-07-23T00:48:35;5.83;;;5.33;;
15812;SDS011;8007;51.404;6.304;2022-07-23T00:50:37;7.77;;;5.73;;
15812;SDS011;8007;51.404;6.304;2022-07-23T00:52:40;7.73;;;5.50;;
15812;SDS011;8007;51.404;6.304;2022-07-23T00:54:44;6.37;;;5.70;;
15812;SDS011;8007;51.404;6.304;2022-07-23T00:56:46;7.40;;;5.67;;
15812;SDS011;8007;51.404;6.304;2022-07-23T00:58:48;7.60;;;5.53;;
15812;SDS011;8007;51.404;6.304;2022-07-23T01:00:51;8.17;;;6.30;;
15812;SDS011;8007;51.404;6.304;2022-07-23T01:02:53;7.47;;;5.43;;
15812;SDS011;8007;51.404;6.304;2022-07-23T01:04:56;7.03;;;5.40;;
15812;SDS011;8007;51.404;6.304;2022-07-23T01:06:58;8.87;;;5.77;;
15812;SDS011;8007;51.404;6.304;2022-07-23T01:09:02;6.87;;;6.03;;
15812;SDS011;8007;51.404;6.304;2022-07-23T01:11:06;8.00;;;5.40;;
15812;SDS011;8007;51.404;6.304;2022-07-23T01:13:09;10.17;;;5.60;;
15812;SDS011;8007;51.404;6.304;2022-07-23T01:15:12;6.93;;;6.03;;
15812;SDS011;8007;51.404;6.304;2022-07-23T01:17:14;7.80;;;6.27;;
15812;SDS011;8007;51.404;6.304;2022-07-23T01:19:17;11.73;;;6.40;;
15812;SDS011;8007;51.404;6.304;2022-07-23T01:21:19;9.47;;;6.40;;
15812;SDS011;8007;51.404;6.304;2022-07-23T01:23:26;7.57;;;6.77;;
15812;SDS011;8007;51.404;6.304;2022-07-23T01:25:28;8.13;;;6.77;;
15812;SDS011;8007;51.404;6.304;2022-07-23T01:27:30;9.33;;;6.47;;
15812;SDS011;8007;51.404;6.304;2022-07-23T01:29:33;16.10;;;6.90;;
15812;SDS011;8007;51.404;6.304;2022-07-23T01:31:35;8.67;;;6.57;;
15812;SDS011;8007;51.404;6.304;2022-07-23T01:33:38;9.20;;;6.03;;
15812;SDS011;8007;51.404;6.304;2022-07-23T01:35:40;8.43;;;6.33;;
15812;SDS011;8007;51.404;6.304;2022-07-23T01:37:42;9.13;;;6.00;;
15812;SDS011;8007;51.404;6.304;2022-07-23T01:39:46;9.70;;;6.50;;
15812;SDS011;8007;51.404;6.304;2022-07-23T01:41:48;9.17;;;6.50;;
15812;SDS011;8007;51.404;6.304;2022-07-23T01:43:51;6.90;;;6.10;;
15812;SDS011;8007;51.404;6.304;2022-07-23T01:45:53;8.77;;;5.97;;
15812;SDS011;8007;51.404;6.304;2022-07-23T01:47:55;7.40;;;6.70;;
15812;SDS011;8007;51.404;6.304;2022-07-23T01:49:58;9.33;;;6.53;;
15812;SDS011;8007;51.404;6.304;2022-07-23T01:52:00;8.57;;;6.73;;
15812;SDS011;8007;51.404;6.304;2022-07-23T01:54:02;11.93;;;6.80;;
15812;SDS011;8007;51.404;6.304;2022-07-23T01:56:06;8.27;;;6.60;;
15812;SDS011;8007;51.404;6.304;2022-07-23T01:58:09;8.17;;;6.73;;
15812;SDS011;8007;51.404;6.304;2022-07-23T02:00:11;11.37;;;7.40;;
15812;SDS011;8007;51.404;6.304;2022-07-23T02:02:14;8.93;;;6.33;;
15812;SDS011;8007;51.404;6.304;2022-07-23T02:04:16;10.27;;;7.17;;
15812;SDS011;8007;51.404;6.304;2022-07-23T02:06:19;11.10;;;7.53;;
15812;SDS011;8007;51.404;6.304;2022-07-23T02:08:21;9.00;;;7.40;;
15812;SDS011;8007;51.404;6.304;2022-07-23T02:10:24;8.67;;;7.13;;
15812;SDS011;8007;51.404;6.304;2022-07-23T02:12:27;8.80;;;7.30;;
15812;SDS011;8007;51.404;6.304;2022-07-23T02:14:30;10.07;;;7.40;;
15812;SDS011;8007;51.404;6.304;2022-07-23T02:16:32;9.43;;;7.50;;
15812;SDS011;8007;51.404;6.304;2022-07-23T02:18:35;8.33;;;7.00;;
15812;SDS011;8007;51.404;6.304;2022-07-23T02:20:37;8.43;;;7.43;;
15812;SDS011;8007;51.404;6.304;2022-07-23T02:22:40;11.60;;;7.10;;
15812;SDS011;8007;51.404;6.304;2022-07-23T02:24:42;10.60;;;7.97;;
15812;SDS011;8007;51.404;6.304;2022-07-23T02:26:44;12.30;;;7.73;;
15812;SDS011;8007;51.404;6.304;2022-07-23T02:28:48;11.27;;;8.30;;
15812;SDS011;8007;51.404;6.304;2022-07-23T02:30:50;10.70;;;8.10;;
15812;SDS011;8007;51.404;6.304;2022-07-23T02:32:53;13.03;;;7.93;;
15812;SDS011;8007;51.404;6.304;2022-07-23T02:34:55;12.63;;;8.50;;
15812;SDS011;8007;51.404;6.304;2022-07-23T02:36:57;10.73;;;8.20;;
15812;SDS011;8007;51.404;6.304;2022-07-23T02:39:00;9.10;;;7.37;;
15812;SDS011;8007;51.404;6.304;2022-07-23T02:41:03;10.57;;;7.03;;
15812;SDS011;8007;51.404;6.304;2022-07-23T02:43:05;11.97;;;7.40;;
15812;SDS011;8007;51.404;6.304;2022-07-23T02:45:09;11.03;;;7.57;;
15812;SDS011;8007;51.404;6.304;2022-07-23T02:47:12;8.80;;;7.13;;
15812;SDS011;8007;51.404;6.304;2022-07-23T02:49:14;12.20;;;8.07;;
15812;SDS011;8007;51.404;6.304;2022-07-23T02:51:16;10.13;;;7.87;;
15812;SDS011;8007;51.404;6.304;2022-07-23T02:53:19;12.03;;;8.27;;
15812;SDS011;8007;51.404;6.304;2022-07-23T02:55:21;10.73;;;8.00;;
15812;SDS011;8007;51.404;6.304;2022-07-23T02:57:24;10.37;;;7.63;;
15812;SDS011;8007;51.404;6.304;2022-07-23T02:59:26;10.67;;;8.20;;
15812;SDS011;8007;51.404;6.304;2022-07-23T03:01:30;9.43;;;7.77;;
15812;SDS011;8007;51.404;6.304;2022-07-23T03:03:32;10.87;;;8.37;;
15812;SDS011;8007;51.404;6.304;2022-07-23T03:05:35;10.23;;;8.30;;
15812;SDS011;8007;51.404;6.304;2022-07-23T03:07:37;12.47;;;8.17;;
15812;SDS011;8007;51.404;6.304;2022-07-23T03:09:39;9.77;;;8.10;;
15812;SDS011;8007;51.404;6.304;2022-07-23T03:11:42;14.17;;;8.70;;
15812;SDS011;8007;51.404;6.304;2022-07-23T03:13:44;10.83;;;8.60;;
15812;SDS011;8007;51.404;6.304;2022-07-23T03:15:46;11.67;;;8.37;;
15812;SDS011;8007;51.404;6.304;2022-07-23T03:17:50;11.07;;;7.97;;
15812;SDS011;8007;51.404;6.304;2022-07-23T03:19:52;12.37;;;8.47;;
15812;SDS011;8007;51.404;6.304;2022-07-23T03:21:55;10.83;;;8.27;;
15812;SDS011;8007;51.404;6.304;2022-07-23T03:23:57;14.10;;;9.53;;
15812;SDS011;8007;51.404;6.304;2022-07-23T03:25:59;12.47;;;9.00;;
15812;SDS011;8007;51.404;6.304;2022-07-23T03:28:02;11.73;;;8.17;;
15812;SDS011;8007;51.404;6.304;2022-07-23T03:30:05;12.23;;;9.00;;
15812;SDS011;8007;51.404;6.304;2022-07-23T03:32:08;9.97;;;7.73;;
15812;SDS011;8007;51.404;6.304;2022-07-23T03:34:12;13.63;;;9.27;;
15812;SDS011;8007;51.404;6.304;2022-07-23T03:36:14;12.53;;;7.83;;
15812;SDS011;8007;51.404;6.304;2022-07-23T03:38:17;9.90;;;7.63;;
15812;SDS011;8007;51.404;6.304;2022-07-23T03:40:19;11.27;;;8.47;;
15812;SDS011;8007;51.404;6.304;2022-07-23T03:42:21;10.87;;;8.37;;
15812;SDS011;8007;51.404;6.304;2022-07-23T03:44:23;11.83;;;9.03;;
15812;SDS011;8007;51.404;6.304;2022-07-23T03:46:28;11.57;;;8.73;;
15812;SDS011;8007;51.404;6.304;2022-07-23T03:48:30;11.40;;;9.03;;
15812;SDS011;8007;51.404;6.304;2022-07-23T03:50:34;12.93;;;8.97;;
15812;SDS011;8007;51.404;6.304;2022-07-23T03:52:37;10.50;;;9.20;;
15812;SDS011;8007;51.404;6.304;2022-07-23T03:54:39;16.10;;;9.17;;
15812;SDS011;8007;51.404;6.304;2022-07-23T03:56:42;12.07;;;9.37;;
15812;SDS011;8007;51.404;6.304;2022-07-23T03:58:47;13.63;;;9.30;;
15812;SDS011;8007;51.404;6.304;2022-07-23T04:00:50;12.73;;;9.10;;
15812;SDS011;8007;51.404;6.304;2022-07-23T04:02:52;10.47;;;9.07;;
15812;SDS011;8007;51.404;6.304;2022-07-23T04:04:54;13.37;;;9.10;;
15812;SDS011;8007;51.404;6.304;2022-07-23T04:06:58;14.53;;;9.83;;
15812;SDS011;8007;51.404;6.304;2022-07-23T04:09:01;14.73;;;10.10;;
15812;SDS011;8007;51.404;6.304;2022-07-23T04:11:04;10.93;;;9.43;;
15812;SDS011;8007;51.404;6.304;2022-07-23T04:13:06;12.23;;;9.03;;
15812;SDS011;8007;51.404;6.304;2022-07-23T04:15:09;14.17;;;10.20;;
15812;SDS011;8007;51.404;6.304;2022-07-23T04:17:11;13.23;;;9.50;;
15812;SDS011;8007;51.404;6.304;2022-07-23T04:19:14;13.27;;;9.50;;
15812;SDS011;8007;51.404;6.304;2022-07-23T04:21:16;16.30;;;9.47;;
15812;SDS011;8007;51.404;6.304;2022-07-23T04:23:20;11.50;;;9.30;;
15812;SDS011;8007;51.404;6.304;2022-07-23T04:25:22;15.83;;;9.43;;
15812;SDS011;8007;51.404;6.304;2022-07-23T04:27:25;12.63;;;9.60;;
15812;SDS011;8007;51.404;6.304;2022-07-23T04:29:27;15.93;;;9.63;;
15812;SDS011;8007;51.404;6.304;2022-07-23T04:31:30;14.37;;;10.40;;
15812;SDS011;8007;51.404;6.304;2022-07-23T04:33:32;15.73;;;10.23;;
15812;SDS011;8007;51.404;6.304;2022-07-23T04:35:34;14.67;;;10.37;;
15812;SDS011;8007;51.404;6.304;2022-07-23T04:37:37;17.13;;;11.27;;
15812;SDS011;8007;51.404;6.304;2022-07-23T04:39:40;12.20;;;10.53;;
15812;SDS011;8007;51.404;6.304;2022-07-23T04:41:43;14.20;;;10.60;;
15812;SDS011;8007;51.404;6.304;2022-07-23T04:43:45;15.20;;;10.90;;
15812;SDS011;8007;51.404;6.304;2022-07-23T04:45:48;15.53;;;11.17;;
15812;SDS011;8007;51.404;6.304;2022-07-23T04:47:50;13.27;;;10.47;;
15812;SDS011;8007;51.404;6.304;2022-07-23T04:49:52;15.00;;;11.23;;
15812;SDS011;8007;51.404;6.304;2022-07-23T04:51:55;13.07;;;10.30;;
15812;SDS011;8007;51.404;6.304;2022-07-23T04:53:57;13.57;;;10.90;;
15812;SDS011;8007;51.404;6.304;2022-07-23T04:56:03;14.93;;;10.60;;
15812;SDS011;8007;51.404;6.304;2022-07-23T04:58:05;15.77;;;10.53;;
15812;SDS011;8007;51.404;6.304;2022-07-23T05:00:08;15.90;;;10.47;;
15812;SDS011;8007;51.404;6.304;2022-07-23T05:02:11;12.80;;;10.03;;
15812;SDS011;8007;51.404;6.304;2022-07-23T05:04:14;14.53;;;10.97;;
15812;SDS011;8007;51.404;6.304;2022-07-23T05:06:16;13.90;;;10.67;;
15812;SDS011;8007;51.404;6.304;2022-07-23T05:08:18;11.47;;;9.67;;
15812;SDS011;8007;51.404;6.304;2022-07-23T05:10:21;15.67;;;10.67;;
15812;SDS011;8007;51.404;6.304;2022-07-23T05:12:24;15.17;;;10.17;;
15812;SDS011;8007;51.404;6.304;2022-07-23T05:14:27;12.33;;;9.93;;
15812;SDS011;8007;51.404;6.304;2022-07-23T05:16:29;15.70;;;10.57;;
15812;SDS011;8007;51.404;6.304;2022-07-23T05:18:32;15.83;;;10.17;;
15812;SDS011;8007;51.404;6.304;2022-07-23T05:20:34;14.00;;;9.63;;
15812;SDS011;8007;51.404;6.304;2022-07-23T05:22:36;14.53;;;11.10;;
15812;SDS011;8007;51.404;6.304;2022-07-23T05:24:39;14.87;;;10.13;;
15812;SDS011;8007;51.404;6.304;2022-07-23T05:26:43;14.10;;;10.07;;
15812;SDS011;8007;51.404;6.304;2022-07-23T05:28:46;15.23;;;10.30;;
15812;SDS011;8007;51.404;6.304;2022-07-23T05:30:49;12.50;;;9.33;;
15812;SDS011;8007;51.404;6.304;2022-07-23T05:32:51;16.63;;;10.00;;
15812;SDS011;8007;51.404;6.304;2022-07-23T05:34:54;14.27;;;9.50;;
15812;SDS011;8007;51.404;6.304;2022-07-23T05:36:56;11.50;;;9.63;;
15812;SDS011;8007;51.404;6.304;2022-07-23T05:38:58;13.90;;;9.73;;
15812;SDS011;8007;51.404;6.304;2022-07-23T05:41:01;14.07;;;10.03;;
15812;SDS011;8007;51.404;6.304;2022-07-23T05:43:03;16.50;;;9.83;;
15812;SDS011;8007;51.404;6.304;2022-07-23T05:45:07;12.87;;;10.10;;
15812;SDS011;8007;51.404;6.304;2022-07-23T05:47:10;15.60;;;10.27;;
15812;SDS011;8007;51.404;6.304;2022-07-23T05:49:13;13.20;;;10.27;;
15812;SDS011;8007;51.404;6.304;2022-07-23T05:51:18;13.87;;;9.47;;
15812;SDS011;8007;51.404;6.304;2022-07-23T05:53:21;14.83;;;10.00;;
15812;SDS011;8007;51.404;6.304;2022-07-23T05:55:24;17.07;;;10.97;;
15812;SDS011;8007;51.404;6.304;2022-07-23T05:57:29;14.43;;;10.23;;
15812;SDS011;8007;51.404;6.304;2022-07-23T05:59:31;13.27;;;10.27;;
15812;SDS011;8007;51.404;6.304;2022-07-23T06:01:35;15.07;;;10.40;;
15812;SDS011;8007;51.404;6.304;2022-07-23T06:03:37;13.27;;;10.30;;
15812;SDS011;8007;51.404;6.304;2022-07-23T06:05:40;15.37;;;10.37;;
15812;SDS011;8007;51.404;6.304;2022-07-23T06:07:42;11.93;;;9.30;;
15812;SDS011;8007;51.404;6.304;2022-07-23T06:09:44;11.40;;;9.77;;
15812;SDS011;8007;51.404;6.304;2022-07-23T06:11:49;16.23;;;10.97;;
15812;SDS011;8007;51.404;6.304;2022-07-23T06:13:51;14.40;;;10.20;;
15812;SDS011;8007;51.404;6.304;2022-07-23T06:15:53;11.20;;;9.47;;
15812;SDS011;8007;51.404;6.304;2022-07-23T06:17:57;13.73;;;9.87;;
15812;SDS011;8007;51.404;6.304;2022-07-23T06:19:59;12.97;;;9.53;;
15812;SDS011;8007;51.404;6.304;2022-07-23T06:22:02;11.37;;;9.27;;
15812;SDS011;8007;51.404;6.304;2022-07-23T06:24:05;11.03;;;8.83;;
15812;SDS011;8007;51.404;6.304;2022-07-23T06:26:07;11.27;;;8.90;;
15812;SDS011;8007;51.404;6.304;2022-07-23T06:28:09;13.33;;;9.47;;
15812;SDS011;8007;51.404;6.304;2022-07-23T06:30:12;11.03;;;8.83;;
15812;SDS011;8007;51.404;6.304;2022-07-23T06:32:17;10.90;;;9.03;;
15812;SDS011;8007;51.404;6.304;2022-07-23T06:34:20;13.17;;;8.70;;
15812;SDS011;8007;51.404;6.304;2022-07-23T06:36:23;11.23;;;8.90;;
15812;SDS011;8007;51.404;6.304;2022-07-23T06:38:25;10.83;;;8.40;;
15812;SDS011;8007;51.404;6.304;2022-07-23T06:40:29;11.67;;;8.20;;
15812;SDS011;8007;51.404;6.304;2022-07-23T06:42:32;10.13;;;8.60;;
15812;SDS011;8007;51.404;6.304;2022-07-23T06:44:36;14.77;;;7.27;;
15812;SDS011;8007;51.404;6.304;2022-07-23T06:46:39;10.50;;;7.50;;
15812;SDS011;8007;51.404;6.304;2022-07-23T06:48:41;8.13;;;7.10;;
15812;SDS011;8007;51.404;6.304;2022-07-23T06:50:45;9.97;;;7.03;;
15812;SDS011;8007;51.404;6.304;2022-07-23T06:52:47;8.80;;;6.30;;
15812;SDS011;8007;51.404;6.304;2022-07-23T06:54:50;8.50;;;6.37;;
15812;SDS011;8007;51.404;6.304;2022-07-23T06:56:52;8.67;;;6.23;;
15812;SDS011;8007;51.404;6.304;2022-07-23T06:58:55;9.80;;;6.60;;
15812;SDS011;8007;51.404;6.304;2022-07-23T07:00:57;8.97;;;6.43;;
15812;SDS011;8007;51.404;6.304;2022-07-23T07:03:00;8.13;;;6.03;;
15812;SDS011;8007;51.404;6.304;2022-07-23T07:05:02;7.50;;;5.70;;
15812;SDS011;8007;51.404;6.304;2022-07-23T07:07:06;8.17;;;5.83;;
15812;SDS011;8007;51.404;6.304;2022-07-23T07:09:09;8.63;;;5.40;;
15812;SDS011;8007;51.404;6.304;2022-07-23T07:11:11;8.00;;;5.63;;
15812;SDS011;8007;51.404;6.304;2022-07-23T07:13:14;8.63;;;5.50;;
15812;SDS011;8007;51.404;6.304;2022-07-23T07:15:16;6.57;;;5.85;;
15812;SDS011;8007;51.404;6.304;2022-07-23T07:17:18;6.35;;;5.30;;
15812;SDS011;8007;51.404;6.304;2022-07-23T07:19:21;7.43;;;5.60;;
15812;SDS011;8007;51.404;6.304;2022-07-23T07:21:23;5.53;;;5.10;;
15812;SDS011;8007;51.404;6.304;2022-07-23T07:23:27;5.93;;;5.32;;
15812;SDS011;8007;51.404;6.304;2022-07-23T07:25:29;7.63;;;4.97;;
15812;SDS011;8007;51.404;6.304;2022-07-23T07:27:32;6.43;;;4.68;;
15812;SDS011;8007;51.404;6.304;2022-07-23T07:29:34;9.45;;;5.57;;
15812;SDS011;8007;51.404;6.304;2022-07-23T07:31:37;7.10;;;5.13;;
15812;SDS011;8007;51.404;6.304;2022-07-23T07:33:39;6.82;;;4.82;;
15812;SDS011;8007;51.404;6.304;2022-07-23T07:35:41;7.55;;;5.35;;
15812;SDS011;8007;51.404;6.304;2022-07-23T07:37:44;7.25;;;5.68;;
15812;SDS011;8007;51.404;6.304;2022-07-23T07:39:47;6.43;;;4.85;;
15812;SDS011;8007;51.404;6.304;2022-07-23T07:41:50;6.28;;;5.40;;
15812;SDS011;8007;51.404;6.304;2022-07-23T07:43:52;6.32;;;5.55;;
15812;SDS011;8007;51.404;6.304;2022-07-23T07:45:54;6.38;;;4.18;;
15812;SDS011;8007;51.404;6.304;2022-07-23T07:47:57;6.85;;;4.90;;
15812;SDS011;8007;51.404;6.304;2022-07-23T07:49:59;6.28;;;5.00;;
15812;SDS011;8007;51.404;6.304;2022-07-23T07:52:02;6.45;;;4.75;;
15812;SDS011;8007;51.404;6.304;2022-07-23T07:54:06;6.40;;;4.45;;
15812;SDS011;8007;51.404;6.304;2022-07-23T07:56:09;4.90;;;4.43;;
15812;SDS011;8007;51.404;6.304;2022-07-23T07:58:12;5.18;;;4.68;;
15812;SDS011;8007;51.404;6.304;2022-07-23T08:00:15;6.95;;;4.80;;
15812;SDS011;8007;51.404;6.304;2022-07-23T08:02:17;5.43;;;4.22;;
15812;SDS011;8007;51.404;6.304;2022-07-23T08:04:20;5.88;;;4.43;;
15812;SDS011;8007;51.404;6.304;2022-07-23T08:06:22;6.60;;;4.57;;
15812;SDS011;8007;51.404;6.304;2022-07-23T08:08:25;7.40;;;4.32;;
15812;SDS011;8007;51.404;6.304;2022-07-23T08:10:27;4.97;;;4.20;;
15812;SDS011;8007;51.404;6.304;2022-07-23T08:12:38;4.65;;;4.25;;
15812;SDS011;8007;51.404;6.304;2022-07-23T08:14:41;5.18;;;4.35;;
15812;SDS011;8007;51.404;6.304;2022-07-23T08:16:44;4.93;;;3.65;;
15812;SDS011;8007;51.404;6.304;2022-07-23T08:18:47;8.38;;;4.20;;
15812;SDS011;8007;51.404;6.304;2022-07-23T08:20:49;5.05;;;4.45;;
15812;SDS011;8007;51.404;6.304;2022-07-23T08:22:52;6.05;;;4.22;;
15812;SDS011;8007;51.404;6.304;2022-07-23T08:24:56;6.28;;;3.97;;
15812;SDS011;8007;51.404;6.304;2022-07-23T08:26:58;4.95;;;4.32;;
15812;SDS011;8007;51.404;6.304;2022-07-23T08:29:02;4.15;;;3.70;;
15812;SDS011;8007;51.404;6.304;2022-07-23T08:31:04;4.25;;;3.88;;
15812;SDS011;8007;51.404;6.304;2022-07-23T08:33:07;4.95;;;3.88;;
15812;SDS011;8007;51.404;6.304;2022-07-23T08:35:13;5.45;;;3.75;;
15812;SDS011;8007;51.404;6.304;2022-07-23T08:37:15;3.95;;;3.50;;
15812;SDS011;8007;51.404;6.304;2022-07-23T08:39:17;5.15;;;3.33;;
15812;SDS011;8007;51.404;6.304;2022-07-23T08:41:20;4.22;;;3.83;;
15812;SDS011;8007;51.404;6.304;2022-07-23T08:43:23;4.40;;;4.00;;
15812;SDS011;8007;51.404;6.304;2022-07-23T08:45:30;5.55;;;4.32;;
15812;SDS011;8007;51.404;6.304;2022-07-23T08:47:32;4.03;;;3.63;;
15812;SDS011;8007;51.404;6.304;2022-07-23T08:49:36;6.13;;;4.80;;
15812;SDS011;8007;51.404;6.304;2022-07-23T08:51:39;4.88;;;3.42;;
15812;SDS011;8007;51.404;6.304;2022-07-23T08:53:42;4.28;;;3.47;;
15812;SDS011;8007;51.404;6.304;2022-07-23T08:55:44;5.13;;;4.05;;
15812;SDS011;8007;51.404;6.304;2022-07-23T08:57:49;4.63;;;4.07;;
15812;SDS011;8007;51.404;6.304;2022-07-23T08:59:52;5.20;;;3.80;;
15812;SDS011;8007;51.404;6.304;2022-07-23T09:01:56;3.83;;;3.53;;
15812;SDS011;8007;51.404;6.304;2022-07-23T09:04:00;4.05;;;3.60;;
15812;SDS011;8007;51.404;6.304;2022-07-23T09:06:03;4.35;;;3.83;;
15812;SDS011;8007;51.404;6.304;2022-07-23T09:08:07;5.82;;;3.60;;
15812;SDS011;8007;51.404;6.304;2022-07-23T09:10:11;3.78;;;3.47;;
15812;SDS011;8007;51.404;6.304;2022-07-23T09:12:13;5.22;;;3.30;;
15812;SDS011;8007;51.404;6.304;2022-07-23T09:14:16;3.75;;;3.40;;
15812;SDS011;8007;51.404;6.304;2022-07-23T09:16:38;5.82;;;3.20;;
15812;SDS011;8007;51.404;6.304;2022-07-23T09:18:43;16.80;;;4.72;;
15812;SDS011;8007;51.404;6.304;2022-07-23T09:20:46;5.88;;;3.50;;
15812;SDS011;8007;51.404;6.304;2022-07-23T09:22:48;11.10;;;3.97;;
15812;SDS011;8007;51.404;6.304;2022-07-23T09:25:08;11.95;;;3.70;;
15812;SDS011;8007;51.404;6.304;2022-07-23T09:27:11;3.97;;;2.95;;
15812;SDS011;8007;51.404;6.304;2022-07-23T09:29:16;3.60;;;3.30;;
15812;SDS011;8007;51.404;6.304;2022-07-23T09:31:19;3.97;;;3.20;;
15812;SDS011;8007;51.404;6.304;2022-07-23T09:33:22;13.77;;;4.40;;
15812;SDS011;8007;51.404;6.304;2022-07-23T09:35:33;6.78;;;3.42;;
15812;SDS011;8007;51.404;6.304;2022-07-23T09:37:49;3.50;;;3.15;;
15812;SDS011;8007;51.404;6.304;2022-07-23T09:40:03;4.65;;;3.00;;
15812;SDS011;8007;51.404;6.304;2022-07-23T09:42:12;4.05;;;3.30;;
15812;SDS011;8007;51.404;6.304;2022-07-23T09:44:17;5.72;;;3.13;;
15812;SDS011;8007;51.404;6.304;2022-07-23T09:46:20;4.68;;;3.45;;
15812;SDS011;8007;51.404;6.304;2022-07-23T09:48:24;3.75;;;3.00;;
15812;SDS011;8007;51.404;6.304;2022-07-23T09:50:26;3.33;;;3.10;;
15812;SDS011;8007;51.404;6.304;2022-07-23T09:52:31;4.07;;;3.00;;
15812;SDS011;8007;51.404;6.304;2022-07-23T09:54:35;3.83;;;3.28;;
15812;SDS011;8007;51.404;6.304;2022-07-23T09:56:39;4.55;;;3.45;;
15812;SDS011;8007;51.404;6.304;2022-07-23T09:58:41;3.53;;;3.15;;
15812;SDS011;8007;51.404;6.304;2022-07-23T10:00:48;3.30;;;3.10;;
15812;SDS011;8007;51.404;6.304;2022-07-23T10:02:51;5.53;;;3.75;;
15812;SDS011;8007;51.404;6.304;2022-07-23T10:04:54;4.32;;;2.95;;
15812;SDS011;8007;51.404;6.304;2022-07-23T10:06:59;4.30;;;3.90;;
15812;SDS011;8007;51.404;6.304;2022-07-23T10:09:03;4.10;;;3.72;;
15812;SDS011;8007;51.404;6.304;2022-07-23T10:11:06;4.80;;;3.50;;
15812;SDS011;8007;51.404;6.304;2022-07-23T10:13:08;4.03;;;3.63;;
15812;SDS011;8007;51.404;6.304;2022-07-23T10:15:34;3.30;;;2.95;;
15812;SDS011;8007;51.404;6.304;2022-07-23T10:17:37;4.53;;;3.42;;
15812;SDS011;8007;51.404;6.304;2022-07-23T10:19:39;4.70;;;3.55;;
15812;SDS011;8007;51.404;6.304;2022-07-23T10:21:44;4.32;;;2.60;;
15812;SDS011;8007;51.404;6.304;2022-07-23T10:23:51;5.00;;;3.40;;
15812;SDS011;8007;51.404;6.304;2022-07-23T10:26:05;3.83;;;3.17;;
15812;SDS011;8007;51.404;6.304;2022-07-23T10:28:15;6.78;;;3.40;;
15812;SDS011;8007;51.404;6.304;2022-07-23T10:30:33;3.10;;;2.90;;
15812;SDS011;8007;51.404;6.304;2022-07-23T10:32:44;3.97;;;3.47;;
15812;SDS011;8007;51.404;6.304;2022-07-23T10:34:52;5.20;;;3.40;;
15812;SDS011;8007;51.404;6.304;2022-07-23T10:37:01;4.38;;;3.30;;
15812;SDS011;8007;51.404;6.304;2022-07-23T10:39:10;5.45;;;3.50;;
15812;SDS011;8007;51.404;6.304;2022-07-23T10:41:19;4.68;;;2.97;;
15812;SDS011;8007;51.404;6.304;2022-07-23T10:43:32;3.33;;;3.03;;
15812;SDS011;8007;51.404;6.304;2022-07-23T10:45:36;4.40;;;3.03;;
15812;SDS011;8007;51.404;6.304;2022-07-23T10:47:38;4.38;;;3.13;;
15812;SDS011;8007;51.404;6.304;2022-07-23T10:49:41;5.28;;;3.60;;
15812;SDS011;8007;51.404;6.304;2022-07-23T10:54:20;5.35;;;3.60;;
15812;SDS011;8007;51.404;6.304;2022-07-23T10:59:04;3.90;;;2.72;;
15812;SDS011;8007;51.404;6.304;2022-07-23T11:03:34;6.95;;;3.00;;
15812;SDS011;8007;51.404;6.304;2022-07-23T11:05:40;2.60;;;2.40;;
15812;SDS011;8007;51.404;6.304;2022-07-23T11:10:31;3.72;;;3.42;;
15812;SDS011;8007;51.404;6.304;2022-07-23T11:12:34;3.50;;;2.85;;
15812;SDS011;8007;51.404;6.304;2022-07-23T11:17:01;3.65;;;2.83;;
15812;SDS011;8007;51.404;6.304;2022-07-23T11:19:20;5.88;;;2.50;;
15812;SDS011;8007;51.404;6.304;2022-07-23T11:21:45;4.07;;;3.10;;
15812;SDS011;8007;51.404;6.304;2022-07-23T11:23:58;3.55;;;2.72;;
15812;SDS011;8007;51.404;6.304;2022-07-23T11:26:02;3.00;;;2.70;;
15812;SDS011;8007;51.404;6.304;2022-07-23T11:28:09;3.70;;;2.70;;
15812;SDS011;8007;51.404;6.304;2022-07-23T11:30:37;3.13;;;2.60;;
15812;SDS011;8007;51.404;6.304;2022-07-23T11:32:41;2.78;;;2.40;;
15812;SDS011;8007;51.404;6.304;2022-07-23T11:34:44;4.53;;;2.88;;
15812;SDS011;8007;51.404;6.304;2022-07-23T11:36:50;3.03;;;2.70;;
15812;SDS011;8007;51.404;6.304;2022-07-23T11:38:52;3.15;;;2.60;;
15812;SDS011;8007;51.404;6.304;2022-07-23T11:40:55;3.67;;;2.70;;
15812;SDS011;8007;51.404;6.304;2022-07-23T11:43:00;2.80;;;2.60;;
15812;SDS011;8007;51.404;6.304;2022-07-23T11:45:05;3.88;;;2.47;;
15812;SDS011;8007;51.404;6.304;2022-07-23T11:47:10;2.50;;;2.30;;
15812;SDS011;8007;51.404;6.304;2022-07-23T11:49:13;3.13;;;2.15;;
15812;SDS011;8007;51.404;6.304;2022-07-23T11:51:24;3.00;;;2.20;;
15812;SDS011;8007;51.404;6.304;2022-07-23T11:53:28;2.13;;;2.03;;
15812;SDS011;8007;51.404;6.304;2022-07-23T11:55:31;2.13;;;2.00;;
15812;SDS011;8007;51.404;6.304;2022-07-23T11:57:34;2.63;;;2.33;;
15812;SDS011;8007;51.404;6.304;2022-07-23T11:59:38;2.85;;;2.20;;
15812;SDS011;8007;51.404;6.304;2022-07-23T12:01:55;2.42;;;2.22;;
15812;SDS011;8007;51.404;6.304;2022-07-23T12:04:00;2.38;;;2.20;;
15812;SDS011;8007;51.404;6.304;2022-07-23T12:06:02;2.80;;;2.50;;
15812;SDS011;8007;51.404;6.304;2022-07-23T12:08:06;2.00;;;1.90;;
15812;SDS011;8007;51.404;6.304;2022-07-23T12:10:11;2.70;;;2.50;;
15812;SDS011;8007;51.404;6.304;2022-07-23T12:12:14;4.60;;;2.75;;
15812;SDS011;8007;51.404;6.304;2022-07-23T12:14:17;2.45;;;2.25;;
15812;SDS011;8007;51.404;6.304;2022-07-23T12:16:19;5.20;;;2.70;;
15812;SDS011;8007;51.404;6.304;2022-07-23T12:18:22;2.60;;;2.40;;
15812;SDS011;8007;51.404;6.304;2022-07-23T12:20:28;3.83;;;2.55;;
15812;SDS011;8007;51.404;6.304;2022-07-23T12:22:35;3.08;;;2.10;;
15812;SDS011;8007;51.404;6.304;2022-07-23T12:24:55;3.78;;;2.15;;
15812;SDS011;8007;51.404;6.304;2022-07-23T12:27:07;2.75;;;2.55;;
15812;SDS011;8007;51.404;6.304;2022-07-23T12:29:10;2.50;;;2.30;;
15812;SDS011;8007;51.404;6.304;2022-07-23T12:31:12;2.38;;;2.10;;
15812;SDS011;8007;51.404;6.304;2022-07-23T12:33:15;2.83;;;2.60;;
15812;SDS011;8007;51.404;6.304;2022-07-23T12:35:23;3.28;;;2.20;;
15812;SDS011;8007;51.404;6.304;2022-07-23T12:37:35;2.53;;;2.33;;
15812;SDS011;8007;51.404;6.304;2022-07-23T12:39:39;2.65;;;2.35;;
15812;SDS011;8007;51.404;6.304;2022-07-23T12:41:50;3.53;;;2.42;;
15812;SDS011;8007;51.404;6.304;2022-07-23T12:43:53;2.67;;;2.47;;
15812;SDS011;8007;51.404;6.304;2022-07-23T12:45:56;4.40;;;2.60;;